Burton, MI (48529)

11:55 AM EDT on June 23, 2017 (GMT -0400)
Dave Grand Blanc | | Change Station

Elev 797 ft 42.95 °N, 83.67 °W | Updated 5 seconds ago

Mostly Cloudy
Mostly Cloudy
73.8 °F
Feels Like 72 °F
N
1.1
Wind Variable Wind from North
Gusts 1.8 mph

Today
High -- | Low -- °F
--% Chance of Precip.
Yesterday
High -- | Low -- °F
Precip. -- in
Pressure 29.58 in
Visibility 10.0 miles
Clouds Mostly Cloudy 900 ft
Mostly Cloudy 8000 ft
Mostly Cloudy 11000 ft
Heat Index 72 °F
Dew Point 70 °F
Humidity 88%
Rainfall 0.00 in
Snow Depth Not available.
5:56 AM 9:17 PM
Waning Crescent, 0% visible
SPECI KFNT 231537Z 32005KT 10SM BKN009 BKN080 BKN110 22/20 A2958 RMK AO2 CIG 006V018 T02170200 $
Pressure 29.58 in
Visibility 10.0 miles
Clouds Mostly Cloudy 900 ft
Mostly Cloudy 8000 ft
Mostly Cloudy 11000 ft
Heat Index 72 °F
Dew Point 70 °F
Humidity 88%
Rainfall 0.00 in
Snow Depth Not available.
5:56 AM 9:17 PM
Waning Crescent, 0% visible
SPECI KFNT 231537Z 32005KT 10SM BKN009 BKN080 BKN110 22/20 A2958 RMK AO2 CIG 006V018 T02170200 $

Get Severe Weather Alerts

Thanks for signing up!

Be on the lookout for a verification email in your inbox.

You'll start receiving the daily forecast at 6 AM.

×

10-Day Weather Forecast

Almanac

Astronomy

Jun. 23, 2017 Rise Set
Actual Time
Civil Twilight
Nautical Twilight
Astronomical Twilight
Moon
Length of Visible Light
Length of Day
Tomorrow will be .
, % of the Moon is Illuminated

Today's Extremes

State Highs State Lows

Community

WunderPhotos

Category 6

Welcome to Category 6. This is the collective home for Weather Underground's featured writeups by Dr. Jeff Masters (right), Bob Henson (left), Chris Burt, and other regular contributors.

Nearby

Air Quality

  Air Quality AQ Index Pollutant
Not available.

Snow Depth

Station Depth Elevation

Earthquake Activity

City Distance Mag. Time & Date
Minimum magnitude displayed is 2.5.

Coastal Water Temperatures

Place Temperature

Stations

Nearby Weather Stations

Station Location Temp. Windchill Dew Point Humidity Wind Precip. Elev Updated Type
                   

Watches & Warnings

There are currently no watches in effect.